Ashland, New Jersey
Current Conditions -  °F | °C
As of 10:54 PM on Wednesday 22 Oct 2014 (Local Time) from KVAY Reporting Station
Light Rain Light Rain  
Wind Chill: 52°   Ceiling: 3700
Heat Index: 52°   Visibility: 9mi
Dew Point: 49°   Wind: 12mph
Humidity: 89%   Direction: 320°NW
Pressure: 29.78"   Gusts: 22mph
Location:  39.9056°N, 74.9993°W
Report Text: KVAY 230254Z AUTO 32010G19KT 9SM -RA FEW024 SCT029 OVC037 11/09 A2978 RMK AO2 SLP083 P0003 60012 T01110094 58011
Loading
Personal Weather Stations






























Interactive Weather Map
Tropical Storm Tracking
New forecast layout! Learn more

10-Day Weather Forecast

Advertisements
Track Severe Weather on mobile